sensor_id;sensor_type;location;lat;lon;timestamp;P1;durP1;ratioP1;P2;durP2;ratioP2
74624;SDS011;63131;52.298;8.056;2022-12-08T00:01:18;12.75;;;5.82;;
74624;SDS011;63131;52.298;8.056;2022-12-08T00:03:44;12.27;;;6.43;;
74624;SDS011;63131;52.298;8.056;2022-12-08T00:09:05;11.20;;;5.97;;
74624;SDS011;63131;52.298;8.056;2022-12-08T00:11:52;14.00;;;6.35;;
74624;SDS011;63131;52.298;8.056;2022-12-08T00:14:30;12.00;;;6.07;;
74624;SDS011;63131;52.298;8.056;2022-12-08T00:16:56;12.10;;;6.18;;
74624;SDS011;63131;52.298;8.056;2022-12-08T00:19:22;15.55;;;6.68;;
74624;SDS011;63131;52.298;8.056;2022-12-08T00:21:48;11.63;;;5.68;;
74624;SDS011;63131;52.298;8.056;2022-12-08T00:24:14;11.50;;;5.82;;
74624;SDS011;63131;52.298;8.056;2022-12-08T00:26:40;9.85;;;5.25;;
74624;SDS011;63131;52.298;8.056;2022-12-08T00:29:05;14.50;;;5.50;;
74624;SDS011;63131;52.298;8.056;2022-12-08T00:31:31;10.48;;;5.25;;
74624;SDS011;63131;52.298;8.056;2022-12-08T00:33:56;12.48;;;6.30;;
74624;SDS011;63131;52.298;8.056;2022-12-08T00:36:22;10.90;;;5.38;;
74624;SDS011;63131;52.298;8.056;2022-12-08T00:38:47;13.32;;;5.45;;
74624;SDS011;63131;52.298;8.056;2022-12-08T00:41:14;9.85;;;5.32;;
74624;SDS011;63131;52.298;8.056;2022-12-08T00:43:40;10.98;;;5.63;;
74624;SDS011;63131;52.298;8.056;2022-12-08T00:46:06;11.23;;;5.43;;
74624;SDS011;63131;52.298;8.056;2022-12-08T00:48:31;11.80;;;6.18;;
74624;SDS011;63131;52.298;8.056;2022-12-08T00:50:57;12.02;;;5.72;;
74624;SDS011;63131;52.298;8.056;2022-12-08T00:53:22;11.82;;;6.03;;
74624;SDS011;63131;52.298;8.056;2022-12-08T00:55:47;12.77;;;5.72;;
74624;SDS011;63131;52.298;8.056;2022-12-08T00:58:13;13.02;;;5.88;;
74624;SDS011;63131;52.298;8.056;2022-12-08T01:00:41;13.57;;;5.78;;
74624;SDS011;63131;52.298;8.056;2022-12-08T01:03:10;10.82;;;5.70;;
74624;SDS011;63131;52.298;8.056;2022-12-08T01:05:36;12.55;;;5.93;;
74624;SDS011;63131;52.298;8.056;2022-12-08T01:08:04;11.75;;;5.85;;
74624;SDS011;63131;52.298;8.056;2022-12-08T01:10:30;14.88;;;6.30;;
74624;SDS011;63131;52.298;8.056;2022-12-08T01:12:56;14.55;;;5.80;;
74624;SDS011;63131;52.298;8.056;2022-12-08T01:15:22;12.68;;;6.30;;
74624;SDS011;63131;52.298;8.056;2022-12-08T01:17:47;10.32;;;5.15;;
74624;SDS011;63131;52.298;8.056;2022-12-08T01:20:13;9.52;;;5.30;;
74624;SDS011;63131;52.298;8.056;2022-12-08T01:22:38;10.80;;;5.78;;
74624;SDS011;63131;52.298;8.056;2022-12-08T01:25:04;14.38;;;5.65;;
74624;SDS011;63131;52.298;8.056;2022-12-08T01:27:29;14.05;;;5.97;;
74624;SDS011;63131;52.298;8.056;2022-12-08T01:29:54;13.73;;;6.22;;
74624;SDS011;63131;52.298;8.056;2022-12-08T01:32:20;12.75;;;6.53;;
74624;SDS011;63131;52.298;8.056;2022-12-08T01:34:45;12.13;;;5.65;;
74624;SDS011;63131;52.298;8.056;2022-12-08T01:37:10;12.07;;;5.78;;
74624;SDS011;63131;52.298;8.056;2022-12-08T01:39:36;14.80;;;6.53;;
74624;SDS011;63131;52.298;8.056;2022-12-08T01:42:02;11.77;;;6.47;;
74624;SDS011;63131;52.298;8.056;2022-12-08T01:46:52;13.33;;;6.83;;
74624;SDS011;63131;52.298;8.056;2022-12-08T01:49:22;13.57;;;6.43;;
74624;SDS011;63131;52.298;8.056;2022-12-08T01:54:35;11.82;;;6.30;;
74624;SDS011;63131;52.298;8.056;2022-12-08T01:57:08;12.25;;;7.15;;
74624;SDS011;63131;52.298;8.056;2022-12-08T01:59:40;13.38;;;7.03;;
74624;SDS011;63131;52.298;8.056;2022-12-08T02:02:08;17.25;;;8.90;;
74624;SDS011;63131;52.298;8.056;2022-12-08T02:04:33;13.80;;;7.82;;
74624;SDS011;63131;52.298;8.056;2022-12-08T02:06:59;16.55;;;8.55;;
74624;SDS011;63131;52.298;8.056;2022-12-08T02:09:25;15.68;;;8.40;;
74624;SDS011;63131;52.298;8.056;2022-12-08T02:11:50;16.00;;;8.20;;
74624;SDS011;63131;52.298;8.056;2022-12-08T02:14:16;14.15;;;8.93;;
74624;SDS011;63131;52.298;8.056;2022-12-08T02:25:24;18.50;;;8.77;;
74624;SDS011;63131;52.298;8.056;2022-12-08T02:28:15;15.93;;;8.45;;
74624;SDS011;63131;52.298;8.056;2022-12-08T02:30:53;18.08;;;9.27;;
74624;SDS011;63131;52.298;8.056;2022-12-08T02:36:19;16.80;;;9.82;;
74624;SDS011;63131;52.298;8.056;2022-12-08T02:47:12;21.17;;;9.23;;
74624;SDS011;63131;52.298;8.056;2022-12-08T02:49:39;20.10;;;10.57;;
74624;SDS011;63131;52.298;8.056;2022-12-08T02:52:06;21.30;;;10.52;;
74624;SDS011;63131;52.298;8.056;2022-12-08T02:54:38;18.92;;;10.25;;
74624;SDS011;63131;52.298;8.056;2022-12-08T02:57:19;17.65;;;9.32;;
74624;SDS011;63131;52.298;8.056;2022-12-08T03:00:02;20.80;;;10.15;;
74624;SDS011;63131;52.298;8.056;2022-12-08T03:02:44;17.02;;;9.23;;
74624;SDS011;63131;52.298;8.056;2022-12-08T03:15:40;18.85;;;9.55;;
74624;SDS011;63131;52.298;8.056;2022-12-08T03:18:08;17.63;;;9.15;;
74624;SDS011;63131;52.298;8.056;2022-12-08T03:20:35;19.95;;;9.75;;
74624;SDS011;63131;52.298;8.056;2022-12-08T03:23:03;20.42;;;10.73;;
74624;SDS011;63131;52.298;8.056;2022-12-08T03:25:30;16.63;;;9.13;;
74624;SDS011;63131;52.298;8.056;2022-12-08T03:28:00;16.70;;;8.07;;
74624;SDS011;63131;52.298;8.056;2022-12-08T03:30:26;17.00;;;9.27;;
74624;SDS011;63131;52.298;8.056;2022-12-08T03:33:36;19.48;;;9.10;;
74624;SDS011;63131;52.298;8.056;2022-12-08T03:35:46;17.75;;;9.60;;
74624;SDS011;63131;52.298;8.056;2022-12-08T03:38:13;15.82;;;8.93;;
74624;SDS011;63131;52.298;8.056;2022-12-08T03:40:39;19.08;;;10.10;;
74624;SDS011;63131;52.298;8.056;2022-12-08T03:43:05;19.92;;;9.82;;
74624;SDS011;63131;52.298;8.056;2022-12-08T03:45:31;17.67;;;8.93;;
74624;SDS011;63131;52.298;8.056;2022-12-08T03:47:57;18.73;;;8.82;;
74624;SDS011;63131;52.298;8.056;2022-12-08T03:50:22;15.75;;;8.88;;
74624;SDS011;63131;52.298;8.056;2022-12-08T03:52:47;20.17;;;9.13;;
74624;SDS011;63131;52.298;8.056;2022-12-08T03:55:13;20.23;;;9.25;;
74624;SDS011;63131;52.298;8.056;2022-12-08T03:57:39;19.25;;;10.52;;
74624;SDS011;63131;52.298;8.056;2022-12-08T04:00:07;16.42;;;8.30;;
74624;SDS011;63131;52.298;8.056;2022-12-08T04:02:34;17.13;;;7.60;;
74624;SDS011;63131;52.298;8.056;2022-12-08T04:04:59;18.60;;;9.88;;
74624;SDS011;63131;52.298;8.056;2022-12-08T04:07:24;14.35;;;7.95;;
74624;SDS011;63131;52.298;8.056;2022-12-08T04:09:50;14.80;;;7.68;;
74624;SDS011;63131;52.298;8.056;2022-12-08T04:12:15;15.15;;;7.32;;
74624;SDS011;63131;52.298;8.056;2022-12-08T04:14:40;15.18;;;7.75;;
74624;SDS011;63131;52.298;8.056;2022-12-08T04:17:06;18.17;;;9.05;;
74624;SDS011;63131;52.298;8.056;2022-12-08T04:19:31;13.60;;;6.88;;
74624;SDS011;63131;52.298;8.056;2022-12-08T04:21:56;15.20;;;7.60;;
74624;SDS011;63131;52.298;8.056;2022-12-08T04:24:22;15.10;;;7.82;;
74624;SDS011;63131;52.298;8.056;2022-12-08T04:26:47;17.75;;;9.27;;
74624;SDS011;63131;52.298;8.056;2022-12-08T04:29:13;14.90;;;9.07;;
74624;SDS011;63131;52.298;8.056;2022-12-08T04:31:42;16.33;;;8.23;;
74624;SDS011;63131;52.298;8.056;2022-12-08T04:34:07;15.25;;;7.53;;
74624;SDS011;63131;52.298;8.056;2022-12-08T04:36:33;16.08;;;8.75;;
74624;SDS011;63131;52.298;8.056;2022-12-08T04:38:58;13.73;;;7.53;;
74624;SDS011;63131;52.298;8.056;2022-12-08T04:41:24;15.13;;;7.20;;
74624;SDS011;63131;52.298;8.056;2022-12-08T04:43:49;13.07;;;7.50;;
74624;SDS011;63131;52.298;8.056;2022-12-08T04:46:14;14.48;;;8.02;;
74624;SDS011;63131;52.298;8.056;2022-12-08T04:48:40;14.70;;;8.60;;
74624;SDS011;63131;52.298;8.056;2022-12-08T04:51:06;14.48;;;7.50;;
74624;SDS011;63131;52.298;8.056;2022-12-08T04:53:31;14.00;;;7.80;;
74624;SDS011;63131;52.298;8.056;2022-12-08T04:55:57;15.02;;;7.80;;
74624;SDS011;63131;52.298;8.056;2022-12-08T04:58:22;13.85;;;7.93;;
74624;SDS011;63131;52.298;8.056;2022-12-08T05:00:47;15.77;;;7.75;;
74624;SDS011;63131;52.298;8.056;2022-12-08T05:03:13;14.80;;;7.80;;
74624;SDS011;63131;52.298;8.056;2022-12-08T05:05:40;14.27;;;6.75;;
74624;SDS011;63131;52.298;8.056;2022-12-08T05:08:05;14.98;;;6.30;;
74624;SDS011;63131;52.298;8.056;2022-12-08T05:10:31;14.35;;;6.30;;
74624;SDS011;63131;52.298;8.056;2022-12-08T05:12:57;13.68;;;6.50;;
74624;SDS011;63131;52.298;8.056;2022-12-08T05:15:23;13.15;;;6.18;;
74624;SDS011;63131;52.298;8.056;2022-12-08T05:17:48;13.27;;;6.55;;
74624;SDS011;63131;52.298;8.056;2022-12-08T05:20:13;12.45;;;6.38;;
74624;SDS011;63131;52.298;8.056;2022-12-08T05:22:39;13.70;;;6.47;;
74624;SDS011;63131;52.298;8.056;2022-12-08T05:25:04;13.18;;;6.85;;
74624;SDS011;63131;52.298;8.056;2022-12-08T05:27:29;12.60;;;6.15;;
74624;SDS011;63131;52.298;8.056;2022-12-08T05:29:55;14.15;;;7.57;;
74624;SDS011;63131;52.298;8.056;2022-12-08T05:32:20;12.85;;;6.15;;
74624;SDS011;63131;52.298;8.056;2022-12-08T05:34:45;12.32;;;6.20;;
74624;SDS011;63131;52.298;8.056;2022-12-08T05:37:11;13.98;;;7.32;;
74624;SDS011;63131;52.298;8.056;2022-12-08T05:39:36;12.15;;;6.55;;
74624;SDS011;63131;52.298;8.056;2022-12-08T05:42:01;13.68;;;6.88;;
74624;SDS011;63131;52.298;8.056;2022-12-08T05:44:27;11.43;;;6.57;;
74624;SDS011;63131;52.298;8.056;2022-12-08T05:46:52;12.35;;;6.35;;
74624;SDS011;63131;52.298;8.056;2022-12-08T05:49:18;11.23;;;6.10;;
74624;SDS011;63131;52.298;8.056;2022-12-08T05:51:43;13.93;;;6.88;;
74624;SDS011;63131;52.298;8.056;2022-12-08T05:54:08;11.30;;;6.60;;
74624;SDS011;63131;52.298;8.056;2022-12-08T05:56:34;15.05;;;6.95;;
74624;SDS011;63131;52.298;8.056;2022-12-08T05:58:59;13.93;;;7.03;;
74624;SDS011;63131;52.298;8.056;2022-12-08T06:01:26;11.85;;;5.43;;
74624;SDS011;63131;52.298;8.056;2022-12-08T06:03:56;10.48;;;5.82;;
74624;SDS011;63131;52.298;8.056;2022-12-08T06:06:22;14.18;;;6.93;;
74624;SDS011;63131;52.298;8.056;2022-12-08T06:08:48;12.85;;;5.93;;
74624;SDS011;63131;52.298;8.056;2022-12-08T06:11:21;12.43;;;6.10;;
74624;SDS011;63131;52.298;8.056;2022-12-08T06:13:51;12.77;;;6.68;;
74624;SDS011;63131;52.298;8.056;2022-12-08T06:16:17;10.55;;;5.82;;
74624;SDS011;63131;52.298;8.056;2022-12-08T06:18:42;13.35;;;6.68;;
74624;SDS011;63131;52.298;8.056;2022-12-08T06:21:09;13.82;;;6.22;;
74624;SDS011;63131;52.298;8.056;2022-12-08T06:23:36;12.50;;;6.53;;
74624;SDS011;63131;52.298;8.056;2022-12-08T06:26:02;13.48;;;6.32;;
74624;SDS011;63131;52.298;8.056;2022-12-08T06:28:31;15.73;;;7.55;;
74624;SDS011;63131;52.298;8.056;2022-12-08T06:30:57;12.30;;;6.10;;
74624;SDS011;63131;52.298;8.056;2022-12-08T06:33:23;12.63;;;6.13;;
74624;SDS011;63131;52.298;8.056;2022-12-08T06:35:49;13.70;;;6.07;;
74624;SDS011;63131;52.298;8.056;2022-12-08T06:38:14;14.30;;;7.22;;
74624;SDS011;63131;52.298;8.056;2022-12-08T06:40:39;13.60;;;6.03;;
74624;SDS011;63131;52.298;8.056;2022-12-08T06:43:05;13.40;;;6.10;;
74624;SDS011;63131;52.298;8.056;2022-12-08T06:45:30;19.52;;;8.68;;
74624;SDS011;63131;52.298;8.056;2022-12-08T06:47:55;16.55;;;8.25;;
74624;SDS011;63131;52.298;8.056;2022-12-08T06:50:21;18.63;;;9.43;;
74624;SDS011;63131;52.298;8.056;2022-12-08T06:52:46;14.70;;;7.78;;
74624;SDS011;63131;52.298;8.056;2022-12-08T06:55:11;16.17;;;7.82;;
74624;SDS011;63131;52.298;8.056;2022-12-08T06:57:37;16.02;;;7.40;;
74624;SDS011;63131;52.298;8.056;2022-12-08T07:00:03;15.85;;;7.35;;
74624;SDS011;63131;52.298;8.056;2022-12-08T07:02:29;17.45;;;7.68;;
74624;SDS011;63131;52.298;8.056;2022-12-08T07:04:55;17.10;;;8.48;;
74624;SDS011;63131;52.298;8.056;2022-12-08T07:07:20;14.75;;;6.18;;
74624;SDS011;63131;52.298;8.056;2022-12-08T07:09:45;13.00;;;6.13;;
74624;SDS011;63131;52.298;8.056;2022-12-08T07:12:11;11.93;;;5.38;;
74624;SDS011;63131;52.298;8.056;2022-12-08T07:14:36;14.15;;;7.18;;
74624;SDS011;63131;52.298;8.056;2022-12-08T07:17:01;12.93;;;6.32;;
74624;SDS011;63131;52.298;8.056;2022-12-08T07:19:27;16.38;;;8.48;;
74624;SDS011;63131;52.298;8.056;2022-12-08T07:21:52;16.05;;;8.35;;
74624;SDS011;63131;52.298;8.056;2022-12-08T07:24:17;15.45;;;8.13;;
74624;SDS011;63131;52.298;8.056;2022-12-08T07:26:43;17.60;;;7.82;;
74624;SDS011;63131;52.298;8.056;2022-12-08T07:29:08;16.75;;;7.32;;
74624;SDS011;63131;52.298;8.056;2022-12-08T07:31:34;12.38;;;6.20;;
74624;SDS011;63131;52.298;8.056;2022-12-08T07:34:00;15.50;;;7.00;;
74624;SDS011;63131;52.298;8.056;2022-12-08T07:36:25;16.25;;;8.13;;
74624;SDS011;63131;52.298;8.056;2022-12-08T07:38:51;12.88;;;6.60;;
74624;SDS011;63131;52.298;8.056;2022-12-08T07:41:21;11.63;;;5.47;;
74624;SDS011;63131;52.298;8.056;2022-12-08T07:43:48;15.65;;;7.50;;
74624;SDS011;63131;52.298;8.056;2022-12-08T07:46:15;15.68;;;6.85;;
74624;SDS011;63131;52.298;8.056;2022-12-08T07:48:42;16.15;;;8.57;;
74624;SDS011;63131;52.298;8.056;2022-12-08T07:51:07;13.57;;;7.03;;
74624;SDS011;63131;52.298;8.056;2022-12-08T07:53:34;13.00;;;6.28;;
74624;SDS011;63131;52.298;8.056;2022-12-08T07:55:59;16.05;;;7.68;;
74624;SDS011;63131;52.298;8.056;2022-12-08T07:58:25;18.92;;;8.20;;
74624;SDS011;63131;52.298;8.056;2022-12-08T08:00:52;18.25;;;8.70;;
74624;SDS011;63131;52.298;8.056;2022-12-08T08:03:17;15.18;;;7.22;;
74624;SDS011;63131;52.298;8.056;2022-12-08T08:05:43;19.55;;;9.10;;
74624;SDS011;63131;52.298;8.056;2022-12-08T08:08:09;16.42;;;6.85;;
74624;SDS011;63131;52.298;8.056;2022-12-08T08:13:00;12.87;;;5.67;;
74624;SDS011;63131;52.298;8.056;2022-12-08T08:15:25;12.50;;;5.18;;
74624;SDS011;63131;52.298;8.056;2022-12-08T08:17:51;12.75;;;5.93;;
74624;SDS011;63131;52.298;8.056;2022-12-08T08:20:17;12.27;;;5.90;;
74624;SDS011;63131;52.298;8.056;2022-12-08T08:22:47;11.00;;;4.70;;
74624;SDS011;63131;52.298;8.056;2022-12-08T08:25:14;11.07;;;5.00;;
74624;SDS011;63131;52.298;8.056;2022-12-08T08:27:43;12.93;;;5.53;;
74624;SDS011;63131;52.298;8.056;2022-12-08T08:30:09;11.43;;;4.90;;
74624;SDS011;63131;52.298;8.056;2022-12-08T08:32:36;12.07;;;5.38;;
74624;SDS011;63131;52.298;8.056;2022-12-08T08:35:02;13.25;;;5.30;;
74624;SDS011;63131;52.298;8.056;2022-12-08T08:37:27;11.43;;;5.32;;
74624;SDS011;63131;52.298;8.056;2022-12-08T08:39:53;12.52;;;5.82;;
74624;SDS011;63131;52.298;8.056;2022-12-08T08:42:18;11.77;;;5.90;;
74624;SDS011;63131;52.298;8.056;2022-12-08T08:44:44;12.77;;;5.85;;
74624;SDS011;63131;52.298;8.056;2022-12-08T08:47:09;11.38;;;5.32;;
74624;SDS011;63131;52.298;8.056;2022-12-08T08:49:35;13.32;;;5.30;;
74624;SDS011;63131;52.298;8.056;2022-12-08T08:52:00;13.10;;;5.72;;
74624;SDS011;63131;52.298;8.056;2022-12-08T08:54:30;12.35;;;5.47;;
74624;SDS011;63131;52.298;8.056;2022-12-08T08:56:56;13.40;;;5.28;;
74624;SDS011;63131;52.298;8.056;2022-12-08T08:59:23;14.20;;;5.63;;
74624;SDS011;63131;52.298;8.056;2022-12-08T09:01:49;12.23;;;6.18;;
74624;SDS011;63131;52.298;8.056;2022-12-08T09:04:14;11.13;;;5.30;;
74624;SDS011;63131;52.298;8.056;2022-12-08T09:06:40;10.75;;;4.75;;
74624;SDS011;63131;52.298;8.056;2022-12-08T09:09:07;12.77;;;4.65;;
74624;SDS011;63131;52.298;8.056;2022-12-08T09:11:32;12.93;;;5.72;;
74624;SDS011;63131;52.298;8.056;2022-12-08T09:13:58;14.90;;;6.00;;
74624;SDS011;63131;52.298;8.056;2022-12-08T09:16:23;13.30;;;6.45;;
74624;SDS011;63131;52.298;8.056;2022-12-08T09:18:49;12.60;;;5.28;;
74624;SDS011;63131;52.298;8.056;2022-12-08T09:21:17;13.35;;;5.90;;
74624;SDS011;63131;52.298;8.056;2022-12-08T09:23:47;11.60;;;6.05;;
74624;SDS011;63131;52.298;8.056;2022-12-08T09:26:13;12.38;;;5.55;;
74624;SDS011;63131;52.298;8.056;2022-12-08T09:28:39;12.02;;;5.13;;
74624;SDS011;63131;52.298;8.056;2022-12-08T09:31:10;10.52;;;4.28;;
74624;SDS011;63131;52.298;8.056;2022-12-08T09:33:35;10.82;;;5.65;;
74624;SDS011;63131;52.298;8.056;2022-12-08T09:36:01;11.65;;;4.60;;
74624;SDS011;63131;52.298;8.056;2022-12-08T09:38:27;11.85;;;4.60;;
74624;SDS011;63131;52.298;8.056;2022-12-08T09:40:53;10.13;;;4.53;;
74624;SDS011;63131;52.298;8.056;2022-12-08T09:43:34;11.45;;;4.70;;
74624;SDS011;63131;52.298;8.056;2022-12-08T09:46:07;12.25;;;4.65;;
74624;SDS011;63131;52.298;8.056;2022-12-08T09:48:36;12.57;;;5.15;;
74624;SDS011;63131;52.298;8.056;2022-12-08T09:51:04;12.93;;;4.60;;
74624;SDS011;63131;52.298;8.056;2022-12-08T09:53:43;14.90;;;6.72;;
74624;SDS011;63131;52.298;8.056;2022-12-08T09:56:14;10.00;;;4.30;;
74624;SDS011;63131;52.298;8.056;2022-12-08T10:01:26;12.63;;;4.68;;
74624;SDS011;63131;52.298;8.056;2022-12-08T10:03:53;12.55;;;4.80;;
74624;SDS011;63131;52.298;8.056;2022-12-08T10:06:32;11.77;;;4.72;;
74624;SDS011;63131;52.298;8.056;2022-12-08T10:14:09;10.20;;;4.05;;
74624;SDS011;63131;52.298;8.056;2022-12-08T10:16:51;11.13;;;4.32;;
74624;SDS011;63131;52.298;8.056;2022-12-08T10:19:21;12.40;;;4.55;;
74624;SDS011;63131;52.298;8.056;2022-12-08T10:21:48;11.20;;;4.75;;
74624;SDS011;63131;52.298;8.056;2022-12-08T10:24:35;11.68;;;4.75;;
74624;SDS011;63131;52.298;8.056;2022-12-08T10:27:01;12.30;;;4.47;;
74624;SDS011;63131;52.298;8.056;2022-12-08T10:29:27;11.13;;;4.43;;
74624;SDS011;63131;52.298;8.056;2022-12-08T10:31:52;10.90;;;3.83;;
74624;SDS011;63131;52.298;8.056;2022-12-08T10:34:21;12.52;;;4.15;;
74624;SDS011;63131;52.298;8.056;2022-12-08T10:36:55;9.70;;;3.53;;
74624;SDS011;63131;52.298;8.056;2022-12-08T10:39:35;9.63;;;4.10;;
74624;SDS011;63131;52.298;8.056;2022-12-08T10:42:22;9.38;;;3.33;;
74624;SDS011;63131;52.298;8.056;2022-12-08T10:47:12;7.60;;;3.00;;
74624;SDS011;63131;52.298;8.056;2022-12-08T10:49:37;8.45;;;2.72;;
74624;SDS011;63131;52.298;8.056;2022-12-08T10:52:07;9.23;;;2.88;;
74624;SDS011;63131;52.298;8.056;2022-12-08T10:54:34;8.05;;;2.88;;
74624;SDS011;63131;52.298;8.056;2022-12-08T10:57:02;9.05;;;3.63;;
74624;SDS011;63131;52.298;8.056;2022-12-08T10:59:28;7.85;;;2.85;;
74624;SDS011;63131;52.298;8.056;2022-12-08T11:01:56;10.30;;;2.97;;
74624;SDS011;63131;52.298;8.056;2022-12-08T11:06:56;9.98;;;3.60;;
74624;SDS011;63131;52.298;8.056;2022-12-08T11:09:22;8.70;;;3.83;;
74624;SDS011;63131;52.298;8.056;2022-12-08T11:12:33;10.88;;;5.07;;
74624;SDS011;63131;52.298;8.056;2022-12-08T11:14:56;9.13;;;4.18;;
74624;SDS011;63131;52.298;8.056;2022-12-08T11:17:26;10.07;;;3.45;;
74624;SDS011;63131;52.298;8.056;2022-12-08T11:19:54;11.35;;;3.78;;
74624;SDS011;63131;52.298;8.056;2022-12-08T11:22:42;9.98;;;3.67;;
74624;SDS011;63131;52.298;8.056;2022-12-08T11:25:25;9.15;;;3.75;;
74624;SDS011;63131;52.298;8.056;2022-12-08T11:27:52;9.75;;;3.53;;
74624;SDS011;63131;52.298;8.056;2022-12-08T11:30:20;8.73;;;3.30;;
74624;SDS011;63131;52.298;8.056;2022-12-08T11:32:52;8.57;;;3.80;;
74624;SDS011;63131;52.298;8.056;2022-12-08T11:35:53;9.25;;;3.30;;
74624;SDS011;63131;52.298;8.056;2022-12-08T11:38:16;8.98;;;2.97;;
74624;SDS011;63131;52.298;8.056;2022-12-08T11:40:45;8.60;;;3.63;;
74624;SDS011;63131;52.298;8.056;2022-12-08T11:43:15;9.15;;;3.28;;
74624;SDS011;63131;52.298;8.056;2022-12-08T11:45:43;6.25;;;2.15;;
74624;SDS011;63131;52.298;8.056;2022-12-08T11:48:20;8.75;;;2.58;;
74624;SDS011;63131;52.298;8.056;2022-12-08T11:53:27;9.63;;;3.20;;
74624;SDS011;63131;52.298;8.056;2022-12-08T11:55:58;9.60;;;3.92;;
74624;SDS011;63131;52.298;8.056;2022-12-08T11:58:25;12.15;;;3.88;;
74624;SDS011;63131;52.298;8.056;2022-12-08T12:00:56;9.07;;;3.53;;
74624;SDS011;63131;52.298;8.056;2022-12-08T12:19:05;10.30;;;4.05;;
74624;SDS011;63131;52.298;8.056;2022-12-08T12:21:40;11.00;;;4.00;;
74624;SDS011;63131;52.298;8.056;2022-12-08T12:24:18;9.35;;;3.45;;
74624;SDS011;63131;52.298;8.056;2022-12-08T12:29:55;8.05;;;3.00;;
74624;SDS011;63131;52.298;8.056;2022-12-08T12:32:23;6.88;;;2.58;;
74624;SDS011;63131;52.298;8.056;2022-12-08T12:34:49;6.93;;;2.53;;
74624;SDS011;63131;52.298;8.056;2022-12-08T12:37:19;8.70;;;2.60;;
74624;SDS011;63131;52.298;8.056;2022-12-08T12:39:48;8.80;;;2.75;;
74624;SDS011;63131;52.298;8.056;2022-12-08T12:42:38;8.35;;;2.60;;
74624;SDS011;63131;52.298;8.056;2022-12-08T12:47:43;7.22;;;2.25;;
74624;SDS011;63131;52.298;8.056;2022-12-08T12:52:56;8.75;;;3.40;;
74624;SDS011;63131;52.298;8.056;2022-12-08T12:55:21;9.85;;;2.53;;
74624;SDS011;63131;52.298;8.056;2022-12-08T12:57:51;8.68;;;3.25;;
74624;SDS011;63131;52.298;8.056;2022-12-08T13:00:20;7.45;;;2.60;;
74624;SDS011;63131;52.298;8.056;2022-12-08T13:02:47;8.55;;;2.95;;
74624;SDS011;63131;52.298;8.056;2022-12-08T13:05:14;8.00;;;3.08;;
74624;SDS011;63131;52.298;8.056;2022-12-08T13:07:42;8.57;;;3.22;;
74624;SDS011;63131;52.298;8.056;2022-12-08T13:12:38;7.88;;;3.17;;
74624;SDS011;63131;52.298;8.056;2022-12-08T13:15:04;7.32;;;2.72;;
74624;SDS011;63131;52.298;8.056;2022-12-08T13:17:31;8.93;;;3.35;;
74624;SDS011;63131;52.298;8.056;2022-12-08T13:19:59;8.57;;;2.78;;
74624;SDS011;63131;52.298;8.056;2022-12-08T13:30:55;7.53;;;2.33;;
74624;SDS011;63131;52.298;8.056;2022-12-08T13:33:31;7.85;;;2.78;;
74624;SDS011;63131;52.298;8.056;2022-12-08T13:38:36;6.65;;;2.63;;
74624;SDS011;63131;52.298;8.056;2022-12-08T13:41:03;7.10;;;2.20;;
74624;SDS011;63131;52.298;8.056;2022-12-08T13:46:25;7.53;;;2.83;;
74624;SDS011;63131;52.298;8.056;2022-12-08T13:48:56;8.10;;;3.13;;
74624;SDS011;63131;52.298;8.056;2022-12-08T13:51:34;9.32;;;2.70;;
74624;SDS011;63131;52.298;8.056;2022-12-08T13:54:06;8.13;;;2.53;;
74624;SDS011;63131;52.298;8.056;2022-12-08T13:56:50;7.70;;;2.55;;
74624;SDS011;63131;52.298;8.056;2022-12-08T14:04:53;8.82;;;3.38;;
74624;SDS011;63131;52.298;8.056;2022-12-08T14:07:19;7.95;;;2.80;;
74624;SDS011;63131;52.298;8.056;2022-12-08T14:09:45;7.30;;;2.47;;
74624;SDS011;63131;52.298;8.056;2022-12-08T14:12:21;7.72;;;3.03;;
74624;SDS011;63131;52.298;8.056;2022-12-08T14:14:49;8.63;;;3.50;;
74624;SDS011;63131;52.298;8.056;2022-12-08T14:17:17;8.27;;;2.70;;
74624;SDS011;63131;52.298;8.056;2022-12-08T14:19:44;7.30;;;2.67;;
74624;SDS011;63131;52.298;8.056;2022-12-08T14:22:17;10.43;;;2.92;;
74624;SDS011;63131;52.298;8.056;2022-12-08T14:24:43;7.28;;;2.65;;
74624;SDS011;63131;52.298;8.056;2022-12-08T14:27:11;8.98;;;3.22;;
74624;SDS011;63131;52.298;8.056;2022-12-08T14:34:58;10.27;;;4.28;;
74624;SDS011;63131;52.298;8.056;2022-12-08T14:39:59;8.27;;;3.13;;
74624;SDS011;63131;52.298;8.056;2022-12-08T14:42:27;7.68;;;3.15;;
74624;SDS011;63131;52.298;8.056;2022-12-08T14:45:00;8.73;;;3.13;;
74624;SDS011;63131;52.298;8.056;2022-12-08T14:47:30;8.80;;;3.40;;
74624;SDS011;63131;52.298;8.056;2022-12-08T14:49:57;9.00;;;3.20;;
74624;SDS011;63131;52.298;8.056;2022-12-08T14:52:23;10.68;;;3.50;;
74624;SDS011;63131;52.298;8.056;2022-12-08T14:54:49;9.80;;;3.03;;
74624;SDS011;63131;52.298;8.056;2022-12-08T14:57:15;8.63;;;3.40;;
74624;SDS011;63131;52.298;8.056;2022-12-08T14:59:41;8.77;;;3.58;;
74624;SDS011;63131;52.298;8.056;2022-12-08T15:04:46;9.15;;;3.55;;
74624;SDS011;63131;52.298;8.056;2022-12-08T15:07:14;10.10;;;3.30;;
74624;SDS011;63131;52.298;8.056;2022-12-08T15:09:45;10.68;;;4.40;;
74624;SDS011;63131;52.298;8.056;2022-12-08T15:14:42;12.40;;;6.27;;
74624;SDS011;63131;52.298;8.056;2022-12-08T15:17:34;11.48;;;5.75;;
74624;SDS011;63131;52.298;8.056;2022-12-08T15:20:25;10.48;;;5.05;;
74624;SDS011;63131;52.298;8.056;2022-12-08T15:22:51;12.63;;;5.13;;
74624;SDS011;63131;52.298;8.056;2022-12-08T15:25:17;9.93;;;3.35;;
74624;SDS011;63131;52.298;8.056;2022-12-08T15:27:43;10.13;;;4.13;;
74624;SDS011;63131;52.298;8.056;2022-12-08T15:30:15;9.23;;;3.65;;
74624;SDS011;63131;52.298;8.056;2022-12-08T15:32:41;9.60;;;3.85;;
74624;SDS011;63131;52.298;8.056;2022-12-08T15:35:07;10.65;;;3.97;;
74624;SDS011;63131;52.298;8.056;2022-12-08T15:37:36;10.23;;;4.05;;
74624;SDS011;63131;52.298;8.056;2022-12-08T15:40:02;9.18;;;3.55;;
74624;SDS011;63131;52.298;8.056;2022-12-08T15:42:27;9.98;;;3.75;;
74624;SDS011;63131;52.298;8.056;2022-12-08T15:44:53;8.75;;;3.50;;
74624;SDS011;63131;52.298;8.056;2022-12-08T15:47:19;10.80;;;4.05;;
74624;SDS011;63131;52.298;8.056;2022-12-08T15:49:46;9.85;;;4.00;;
74624;SDS011;63131;52.298;8.056;2022-12-08T15:52:20;10.27;;;4.07;;
74624;SDS011;63131;52.298;8.056;2022-12-08T15:54:46;11.77;;;5.20;;
74624;SDS011;63131;52.298;8.056;2022-12-08T15:59:42;9.75;;;3.90;;
74624;SDS011;63131;52.298;8.056;2022-12-08T16:02:09;7.78;;;3.08;;
74624;SDS011;63131;52.298;8.056;2022-12-08T16:04:36;8.48;;;2.95;;
74624;SDS011;63131;52.298;8.056;2022-12-08T16:07:03;7.95;;;3.17;;
74624;SDS011;63131;52.298;8.056;2022-12-08T16:09:33;9.07;;;3.75;;
74624;SDS011;63131;52.298;8.056;2022-12-08T16:12:01;9.18;;;3.65;;
74624;SDS011;63131;52.298;8.056;2022-12-08T16:14:46;8.65;;;3.63;;
74624;SDS011;63131;52.298;8.056;2022-12-08T16:17:12;11.35;;;4.35;;
74624;SDS011;63131;52.298;8.056;2022-12-08T16:19:38;10.38;;;3.70;;
74624;SDS011;63131;52.298;8.056;2022-12-08T16:22:05;7.93;;;3.10;;
74624;SDS011;63131;52.298;8.056;2022-12-08T16:24:31;10.30;;;4.07;;
74624;SDS011;63131;52.298;8.056;2022-12-08T16:26:57;9.65;;;3.38;;
74624;SDS011;63131;52.298;8.056;2022-12-08T16:29:22;9.20;;;3.60;;
74624;SDS011;63131;52.298;8.056;2022-12-08T16:31:48;12.10;;;4.90;;
74624;SDS011;63131;52.298;8.056;2022-12-08T16:34:14;13.02;;;5.45;;
74624;SDS011;63131;52.298;8.056;2022-12-08T16:36:39;16.20;;;5.68;;
74624;SDS011;63131;52.298;8.056;2022-12-08T16:39:05;12.57;;;5.65;;
74624;SDS011;63131;52.298;8.056;2022-12-08T16:41:31;9.30;;;4.50;;